Terminal Aerodrome Forecast
Issued by NWS New Orleans/Baton Rouge, LA

Home | Current Version | Previous Version | Text Only | Print | Product List | Glossary On
Versions: 1 2 3 4 5 6 7 8 9 10 11 12 13 14 15 16 17 18 19 20 21 22 23
000
FTUS44 KLIX 290500
TAFNEW
TAF
KNEW 290520Z 2906/3006 14009KT P6SM FEW030 SCT250
     FM291100 08007KT P6SM BKN100 BKN250
     FM291500 10009KT P6SM VCSH SCT040 BKN060
      TEMPO 2918/2922 2SM TSRA BKN030CB
     FM300200 13007KT P6SM SCT040 BKN100=

USA.gov is the U.S. government's official web portal to all federal, state and local government web resources and services.